Jeffrey G Stover — WDF2069 — position and weather

sailwx.info

Track history (hours):
 
Tides and Currents Weather Stations Pressure Air Temp Water Temp Dewpoint Dewpoint Depression Visibility Wind Speed Wind Dir Waves Ship Positions

Jeffrey G Stover

More information available from US FCC via Universal Licensing System and Coast Guard Vessel Documentation Center.

Last reported at 2014-Jul-12 10:21 UTC. Time now 2014-Jul-25 01:34 UTC.
Position N 30°44' W 091°21'.
Warning: this ship's position is 12 days out of date.

Length 64 m; draft 3.1 m.

Type: Tow > 200 m length. MMSI: 367424480.

Date/timePositionNaut miles runAvg speedWind from/ knotsBaromVisibWave heightAir tempDewpointWater temp
2014-Jul-12 10:21N 30°44' W 091°21'4 4.3
2014-Jul-12 09:30N 30°41' W 091°21'6 3.0
2014-Jul-12 07:31N 30°35' W 091°19'31 1.6
2014-Jul-11 12:33N 30°08' W 091°01'4 3.4
2014-Jul-11 11:24N 30°06' W 090°57'10 1.1
2014-Jul-11 02:21N 29°60' W 090°50'2 1.0
2014-Jul-11 00:27N 30°00' W 090°48'  
2014-Jul-05 09:21N 30°06' W 090°58'2 2.6
2014-Jul-05 08:31N 30°07' W 090°55'4 3.3
2014-Jul-05 07:15N 30°04' W 090°52'3 1.5
2014-Jul-05 05:23N 30°02' W 090°50'3 2.6
2014-Jul-05 04:23N 29°59' W 090°49'1 1.1
2014-Jul-05 03:34N 29°60' W 090°48'1 0.9
2014-Jul-05 02:33N 29°59' W 090°49'7 5.1
2014-Jul-05 01:11N 30°04' W 090°54'  
Track history (hours):
 
Tides and Currents Weather Stations Pressure Air Temp Water Temp Dewpoint Dewpoint Depression Visibility Wind Speed Wind Dir Waves Ship Positions

Jeffrey G Stover

More information available from US FCC via Universal Licensing System and Coast Guard Vessel Documentation Center.

Last reported at 2014-Jul-12 10:21 UTC. Time now 2014-Jul-25 01:34 UTC.
Position N 30°44' W 091°21'.
Warning: this ship's position is 12 days out of date.

Length 64 m; draft 3.1 m.

Type: Tow > 200 m length. MMSI: 367424480.

Date/timePositionNaut miles runAvg speedWind from/ knotsBaromVisibWave heightAir tempDewpointWater temp
2014-Jul-12 10:21N 30°44' W 091°21'4 4.3
2014-Jul-12 09:30N 30°41' W 091°21'6 3.0
2014-Jul-12 07:31N 30°35' W 091°19'31 1.6
2014-Jul-11 12:33N 30°08' W 091°01'4 3.4
2014-Jul-11 11:24N 30°06' W 090°57'10 1.1
2014-Jul-11 02:21N 29°60' W 090°50'2 1.0
2014-Jul-11 00:27N 30°00' W 090°48'  
2014-Jul-05 09:21N 30°06' W 090°58'2 2.6
2014-Jul-05 08:31N 30°07' W 090°55'4 3.3
2014-Jul-05 07:15N 30°04' W 090°52'3 1.5
2014-Jul-05 05:23N 30°02' W 090°50'3 2.6
2014-Jul-05 04:23N 29°59' W 090°49'1 1.1
2014-Jul-05 03:34N 29°60' W 090°48'1 0.9
2014-Jul-05 02:33N 29°59' W 090°49'7 5.1
2014-Jul-05 01:11N 30°04' W 090°54'  

Dump ship's entire track history